• Join FlightAware (Why Join?)
  • Login
  • US Flag 
Trick or treat! (Boo!!) 
03:11AM EDT


 

Airport Tracker/Info


-or-


 

Live Flight TrackerFlight Track Log ✈ UAL4401 ✈ 29-Apr-2013 ✈ KMSY - KIAH

Flight Track Log - Related Links

Times and Time Zones

All times are in EDT time to prevent confusion due to time zone crossing. See the UAL4401 flight status page for this flight to view local times or setup timezone preferences in your user account.

Time Position Orientation Groundspeed Altitude Reporting Facility
EDT Latitude Longitude Course Direction KTS MPH feet Rate Location/Type
05:58PM 29.9908 -90.2581 240° Southwest 163 188 400  Level Houston Center
05:59PM 30.0142 -90.2019 64° Northeast 229 264 2,500 2,040 Climbing Houston Center
06:00PM 30.0450 -90.2081 350° North 275 316 3,700 2,640 Climbing Houston Center
06:01PM 29.8891 -90.5023 245° Southwest  Level FlightAware Approximate
06:01PM 30.0492 -90.2831 274° West 263 303 6,600  Level Houston Center
06:02PM 29.8576 -90.5848 240° Southwest  Level FlightAware Approximate
06:02PM 30.0136 -90.3606 242° Southwest 269 310 9,200  Level Houston Center
06:03PM 29.8178 -90.6645 240° Southwest  Level FlightAware Approximate
06:03PM 29.9844 -90.4428 248° West 275 316 11,700  Level Houston Center
06:04PM 29.9325 -90.5464 240° Southwest 322 371 13,000 1,140 Climbing Houston Center
06:05PM 29.8839 -90.6453 240° Southwest 351 404 14,100 1,200 Climbing Houston Center
06:06PM 29.8342 -90.7486 241° Southwest 367 422 15,600 1,440 Climbing Houston Center
06:07PM 29.7822 -90.8519 240° Southwest 372 428 17,100 1,440 Climbing Houston Center
06:08PM 29.7319 -90.9556 241° Southwest 372 428 18,600 1,440 Climbing Houston Center
06:09PM 29.6931 -91.0644 248° West 372 428 20,100 1,620 Climbing Houston Center
06:10PM 29.6706 -91.2061 260° West 375 432 22,000 1,620 Climbing Houston Center
06:11PM 29.6508 -91.3239 259° West 376 433 23,500 1,380 Climbing Houston Center
06:12PM 29.6311 -91.4414 259° West 375 432 24,900 1,200 Climbing Houston Center
06:13PM 29.6119 -91.5578 259° West 372 428 26,000 480 Climbing Houston Center
06:14PM 29.5900 -91.6828 259° West 396 456 26,000  Level Houston Center
06:15PM 29.5683 -91.8106 259° West 413 475 26,000  Level Houston Center
06:16PM 29.5406 -91.9731 259° West 430 495 26,000  Level Houston Center
06:17PM 29.5178 -92.1083 259° West 433 498 26,000 -60 Level Houston Center
06:18PM 29.4939 -92.2419 258° West 429 494 25,900  Descending Houston Center
06:19PM 29.4711 -92.3761 259° West 429 494 26,000  Climbing Houston Center
06:20PM 29.4583 -92.5108 264° West 426 490 25,900  Descending Houston Center
06:21PM 29.4658 -92.6478 274° West 430 495 26,000  Climbing Houston Center
06:22PM 29.4731 -92.8117 273° West 430 495 26,000 -60 Level Houston Center
06:23PM 29.4797 -92.9494 273° West 432 497 25,900 -60 Descending Houston Center
06:24PM 29.4853 -93.0872 273° West 432 497 25,900  Level Houston Center
06:25PM 29.4914 -93.2253 273° West 433 498 26,000  Climbing Houston Center
06:26PM 29.4969 -93.3633 273° West 432 497 26,000 -300 Level Houston Center
06:27PM 29.5022 -93.5003 273° West 429 494 25,500 -1,260 Descending Houston Center
06:29PM 29.5081 -93.6361 273° West 427 491 23,500 -2,160 Descending Houston Center
06:30PM 29.5133 -93.7969 272° West 421 484 21,100 -2,160 Descending Houston Center
06:31PM 29.5183 -93.9233 273° West 402 463 19,100 -2,040 Descending Houston Center
06:32PM 29.5228 -94.0483 272° West 395 455 16,900 -2,160 Descending Houston Center
06:32PM 29.5239 -94.0964 272° West 392 451 16,100 -2,160 Descending Houston Center
06:33PM 29.5283 -94.1747 274° West 391 450 14,700 -2,460 Descending Houston Center
06:33PM 29.5283 -94.2233 270° West 359 413 13,600 -1,680 Descending Houston Center
06:34PM 29.5308 -94.2922 272° West 374 430 13,000 -600 Descending Houston Center
06:34PM 29.5367 -94.3472 277° West 377 434 13,000 -120 Level Houston Center
06:35PM 29.5603 -94.4056 295° West 380 437 12,900 -840 Descending Houston Center
06:35PM 29.5836 -94.4614 296° West 383 441 12,200 -1,380 Descending Houston Center
06:36PM 29.6064 -94.5150 296° West 383 441 11,500 -1,380 Descending Houston Center
06:36PM 29.6300 -94.5683 297° West 376 433 10,800 -1,380 Descending Houston Center
06:37PM 29.6522 -94.6211 296° West 376 433 10,100 -900 Descending Houston Center
06:37PM 29.6739 -94.6758 295° West 371 427 9,900 -120 Descending Houston Center
06:38PM 29.7069 -94.7492 297° West 374 430 10,000 60 Climbing Houston Center
06:38PM 29.7200 -94.7831 294° West 373 429 10,000 -540 Level Houston Center
06:39PM 29.7606 -94.8767 297° West 285 328 9,300 -960 Descending Houston Center
06:40PM 29.7822 -94.9275 296° West 293 337 8,400 -1,380 Descending Houston Center
06:40PM 29.7958 -94.9614 295° West 288 331 7,900 -1,200 Descending Houston Center
06:41PM 29.8158 -95.0083 296° West 284 327 7,200 -1,320 Descending Houston Center
06:41PM 29.8286 -95.0417 294° West 278 320 6,600 -1,200 Descending Houston Center
06:42PM 29.8489 -95.0875 297° West 278 320 6,000 -600 Descending Houston Center
06:42PM 29.8639 -95.1264 294° West 277 319 6,000  Level Houston Center
06:43PM 29.8889 -95.1828 297° West 278 320 6,000  Level Houston Center
06:43PM 29.8969 -95.2092 289° West 275 316 6,000  Level Houston Center
06:44PM 29.8997 -95.2669 273° West 273 314 6,000  Level Houston Center
06:44PM 29.9006 -95.2956 272° West 274 315 6,000  Level Houston Center
06:45PM 29.9006 -95.3547 270° West 276 318 6,000 -420 Level Houston Center
06:45PM 29.9003 -95.3847 269° West 278 320 5,600 -1,380 Descending Houston Center
06:46PM 29.9008 -95.4419 271° West 274 315 4,600 -900 Descending Houston Center
06:47PM 29.9117 -95.5244 279° West 275 316 4,000 -720 Descending Houston Center
06:48PM 29.9822 -95.5114 North 231 266 3,200 -1,200 Descending Houston Center
06:49PM 29.9939 -95.4517 77° East 204 235 1,600 -1,560 Descending Houston Center